Winkler County Airport
KINK : rendu visible

Aérodrome :











RETROUVEZ-NOUS SUR...

 
LOGIN :

S'inscrire | Disclaimer

   EN    FR    IT 

 









Légende :    VFR   VFR Marginal   IFR   IFR Intensif   IFR Très Intensif
Visi : 
Plafond : 
>= 8 km
>= 3000ft
5 à 8 km
1000 à 3000 ft
1500m à 5 km
500 à 1000 ft
800 à 1500m
200 à 500 ft
< 800m
< 200 ft
Symboles :   Orages  Brouillard  Fortes neiges  Fortes précipitations  Vent > 20 kt






- Altitude de l'aérodrome : 2822 ft


KINK - Winkler County

DERNIER METAR :
  • 100853Z AUTO 07012KT 10SM OVC015 04/02 A3009 RMK AO2 SLP175 T00440022 50009

METARs EXPIRÉS :
  • 100753Z AUTO 08013KT 10SM OVC008 05/03 A3009 RMK AO2 CIG 007V011 PRESRR SLP176 T00500033
  • 100653Z AUTO 06015KT 8SM OVC006 06/05 A3008 RMK AO2 WSHFT 0633 CIG 003V010 SLP172 T00610050
  • 100631Z AUTO 11009KT 10SM BKN004 OVC035 10/09 A3004 RMK AO2 T01000089

TAF KINK
Valide du 10 à 06h jusqu'au 11 à 06h UTC


100520Z 1006/1106 13011KT 6SM BR FEW004 SCT028 OVC045
TEMPO 1006/1010 OVC007
FM102000 18005KT P6SM OVC050



MET'MAP, la Météo Aéronautique d'un coup d'oeil ! - Copyright ORBIFLY Décembre 2007 - Disclaimer

ORBIFLY MET'MAP TEAM :

Programmation & Développement : Alexandra Zaïnal
Sur une idée originale de : Baudouin d'Aumeries
Assistance à la programmation : Marc-Olivier Méhu
Soutien technique & logistique : Manuel Goepfert

Contact : metmap@orbifly.com




SOURCES & CREDITS :

   NOAA       Earth
Advisory